sensor_id;sensor_type;location;lat;lon;timestamp;pressure;altitude;pressure_sealevel;temperature;humidity
54920;BME280;63804;53.120;8.764;2023-01-28T00:00:26;103048.31;;;4.54;38.13
54920;BME280;63804;53.120;8.764;2023-01-28T00:02:52;103044.63;;;4.60;37.93
54920;BME280;63804;53.120;8.764;2023-01-28T00:05:18;103049.31;;;4.64;37.86
54920;BME280;63804;53.120;8.764;2023-01-28T00:07:43;103048.66;;;4.74;37.64
54920;BME280;63804;53.120;8.764;2023-01-28T00:10:10;103046.59;;;4.64;37.48
54920;BME280;63804;53.120;8.764;2023-01-28T00:12:35;103056.09;;;4.50;37.88
54920;BME280;63804;53.120;8.764;2023-01-28T00:15:01;103056.41;;;4.54;37.82
54920;BME280;63804;53.120;8.764;2023-01-28T00:17:27;103059.81;;;4.61;37.54
54920;BME280;63804;53.120;8.764;2023-01-28T00:19:53;103063.97;;;4.52;37.62
54920;BME280;63804;53.120;8.764;2023-01-28T00:22:19;103053.22;;;4.57;37.58
54920;BME280;63804;53.120;8.764;2023-01-28T00:24:45;103053.31;;;4.62;37.36
54920;BME280;63804;53.120;8.764;2023-01-28T00:27:10;103051.28;;;4.52;37.59
54920;BME280;63804;53.120;8.764;2023-01-28T00:29:37;103049.22;;;4.42;37.92
54920;BME280;63804;53.120;8.764;2023-01-28T00:32:03;103043.13;;;4.35;37.92
54920;BME280;63804;53.120;8.764;2023-01-28T00:34:29;103046.59;;;4.48;37.92
54920;BME280;63804;53.120;8.764;2023-01-28T00:36:54;103045.03;;;4.52;37.59
54920;BME280;63804;53.120;8.764;2023-01-28T00:39:24;103047.25;;;4.55;37.25
54920;BME280;63804;53.120;8.764;2023-01-28T00:41:51;103052.50;;;4.61;37.03
54920;BME280;63804;53.120;8.764;2023-01-28T00:44:18;103051.38;;;4.57;37.40
54920;BME280;63804;53.120;8.764;2023-01-28T00:46:44;103040.25;;;4.42;37.76
54920;BME280;63804;53.120;8.764;2023-01-28T00:49:10;103051.09;;;4.42;37.61
54920;BME280;63804;53.120;8.764;2023-01-28T00:51:36;103050.09;;;4.31;37.76
54920;BME280;63804;53.120;8.764;2023-01-28T00:54:02;103047.16;;;4.33;37.66
54920;BME280;63804;53.120;8.764;2023-01-28T00:56:28;103051.75;;;4.32;37.98
54920;BME280;63804;53.120;8.764;2023-01-28T00:58:54;103041.09;;;4.42;37.61
54920;BME280;63804;53.120;8.764;2023-01-28T01:01:23;103047.00;;;4.39;37.47
54920;BME280;63804;53.120;8.764;2023-01-28T01:03:49;103042.06;;;4.36;37.56
54920;BME280;63804;53.120;8.764;2023-01-28T01:06:38;103048.19;;;4.15;37.87
54920;BME280;63804;53.120;8.764;2023-01-28T01:09:06;103042.72;;;3.98;38.57
54920;BME280;63804;53.120;8.764;2023-01-28T01:11:32;103052.91;;;4.07;38.74
54920;BME280;63804;53.120;8.764;2023-01-28T01:13:59;103053.22;;;4.40;38.01
54920;BME280;63804;53.120;8.764;2023-01-28T01:16:29;103058.63;;;4.57;37.75
54920;BME280;63804;53.120;8.764;2023-01-28T01:18:58;103056.34;;;4.49;37.36
54920;BME280;63804;53.120;8.764;2023-01-28T01:21:26;103060.53;;;4.39;37.64
54920;BME280;63804;53.120;8.764;2023-01-28T01:23:52;103046.72;;;4.24;38.17
54920;BME280;63804;53.120;8.764;2023-01-28T01:26:18;103051.78;;;4.20;38.26
54920;BME280;63804;53.120;8.764;2023-01-28T01:28:44;103054.53;;;4.37;38.08
54920;BME280;63804;53.120;8.764;2023-01-28T01:31:14;103054.53;;;4.37;37.84
54920;BME280;63804;53.120;8.764;2023-01-28T01:33:41;103050.69;;;4.50;37.58
54920;BME280;63804;53.120;8.764;2023-01-28T01:36:08;103054.72;;;4.48;37.51
54920;BME280;63804;53.120;8.764;2023-01-28T01:38:34;103050.75;;;4.55;37.28
54920;BME280;63804;53.120;8.764;2023-01-28T01:41:02;103052.97;;;4.41;37.53
54920;BME280;63804;53.120;8.764;2023-01-28T01:46:22;103041.66;;;4.44;37.23
54920;BME280;63804;53.120;8.764;2023-01-28T01:48:51;103048.06;;;4.38;37.25
54920;BME280;63804;53.120;8.764;2023-01-28T01:51:21;103047.56;;;4.41;37.28
54920;BME280;63804;53.120;8.764;2023-01-28T01:53:51;103040.47;;;4.52;37.05
54920;BME280;63804;53.120;8.764;2023-01-28T01:56:21;103040.72;;;4.68;36.82
54920;BME280;63804;53.120;8.764;2023-01-28T01:58:49;103038.88;;;4.22;37.77
54920;BME280;63804;53.120;8.764;2023-01-28T02:01:23;103031.47;;;4.18;38.11
54920;BME280;63804;53.120;8.764;2023-01-28T02:06:21;103037.38;;;3.86;38.85
54920;BME280;63804;53.120;8.764;2023-01-28T02:08:47;103036.44;;;3.80;38.82
54920;BME280;63804;53.120;8.764;2023-01-28T02:11:13;103036.59;;;4.02;38.94
54920;BME280;63804;53.120;8.764;2023-01-28T02:13:44;103046.28;;;4.15;38.51
54920;BME280;63804;53.120;8.764;2023-01-28T02:16:12;103045.94;;;3.83;38.82
54920;BME280;63804;53.120;8.764;2023-01-28T02:18:38;103045.84;;;3.78;38.70
54920;BME280;63804;53.120;8.764;2023-01-28T02:32:14;103053.41;;;4.04;38.53
54920;BME280;63804;53.120;8.764;2023-01-28T02:34:47;103050.75;;;3.93;38.75
54920;BME280;63804;53.120;8.764;2023-01-28T02:37:25;103045.16;;;3.82;38.94
54920;BME280;63804;53.120;8.764;2023-01-28T02:39:58;103039.75;;;3.82;39.09
54920;BME280;63804;53.120;8.764;2023-01-28T02:42:29;103042.19;;;3.84;39.22
54920;BME280;63804;53.120;8.764;2023-01-28T02:44:55;103050.59;;;3.99;38.63
54920;BME280;63804;53.120;8.764;2023-01-28T02:47:21;103046.97;;;3.94;38.66
54920;BME280;63804;53.120;8.764;2023-01-28T02:50:12;103048.59;;;3.95;38.42
54920;BME280;63804;53.120;8.764;2023-01-28T02:52:55;103058.41;;;3.84;39.04
54920;BME280;63804;53.120;8.764;2023-01-28T03:04:43;103043.53;;;3.98;38.43
54920;BME280;63804;53.120;8.764;2023-01-28T03:07:13;103045.22;;;4.16;37.80
54920;BME280;63804;53.120;8.764;2023-01-28T03:09:48;103043.97;;;4.07;37.67
54920;BME280;63804;53.120;8.764;2023-01-28T03:12:21;103039.16;;;4.09;37.65
54920;BME280;63804;53.120;8.764;2023-01-28T03:15:37;103045.28;;;4.04;37.07
54920;BME280;63804;53.120;8.764;2023-01-28T03:18:28;103045.22;;;4.16;37.16
54920;BME280;63804;53.120;8.764;2023-01-28T03:23:59;103045.75;;;4.01;37.65
54920;BME280;63804;53.120;8.764;2023-01-28T03:29:47;103043.25;;;4.12;37.23
54920;BME280;63804;53.120;8.764;2023-01-28T03:32:33;103046.03;;;4.17;37.07
54920;BME280;63804;53.120;8.764;2023-01-28T03:35:21;103051.97;;;4.02;37.14
54920;BME280;63804;53.120;8.764;2023-01-28T03:38:07;103052.91;;;4.07;37.17
54920;BME280;63804;53.120;8.764;2023-01-28T03:40:51;103042.97;;;3.96;37.26
54920;BME280;63804;53.120;8.764;2023-01-28T03:43:17;103046.09;;;3.76;37.52
54920;BME280;63804;53.120;8.764;2023-01-28T03:45:43;103048.91;;;3.81;37.27
54920;BME280;63804;53.120;8.764;2023-01-28T03:48:11;103059.16;;;3.67;38.10
54920;BME280;63804;53.120;8.764;2023-01-28T03:50:38;103065.63;;;3.95;37.79
54920;BME280;63804;53.120;8.764;2023-01-28T03:53:04;103057.34;;;4.14;37.49
54920;BME280;63804;53.120;8.764;2023-01-28T03:55:43;103056.28;;;4.15;37.55
54920;BME280;63804;53.120;8.764;2023-01-28T03:58:10;103050.72;;;4.21;37.49
54920;BME280;63804;53.120;8.764;2023-01-28T04:00:37;103052.06;;;4.19;37.43
54920;BME280;63804;53.120;8.764;2023-01-28T04:03:11;103056.00;;;3.70;37.89
54920;BME280;63804;53.120;8.764;2023-01-28T04:06:06;103049.31;;;3.49;38.58
54920;BME280;63804;53.120;8.764;2023-01-28T04:08:31;103056.09;;;3.76;38.21
54920;BME280;63804;53.120;8.764;2023-01-28T04:10:57;103054.22;;;3.64;38.09
54920;BME280;63804;53.120;8.764;2023-01-28T04:13:23;103047.66;;;3.60;38.22
54920;BME280;63804;53.120;8.764;2023-01-28T04:15:50;103047.19;;;3.63;38.45
54920;BME280;63804;53.120;8.764;2023-01-28T04:18:16;103046.06;;;3.47;38.97
54920;BME280;63804;53.120;8.764;2023-01-28T04:20:42;103039.28;;;3.74;38.64
54920;BME280;63804;53.120;8.764;2023-01-28T04:23:07;103040.97;;;3.63;38.93
54920;BME280;63804;53.120;8.764;2023-01-28T04:25:34;103044.31;;;3.82;38.68
54920;BME280;63804;53.120;8.764;2023-01-28T04:28:00;103053.31;;;3.99;38.56
54920;BME280;63804;53.120;8.764;2023-01-28T04:30:26;103052.50;;;3.99;38.38
54920;BME280;63804;53.120;8.764;2023-01-28T04:32:53;103053.75;;;3.67;38.90
54920;BME280;63804;53.120;8.764;2023-01-28T04:35:19;103057.50;;;3.66;38.98
54920;BME280;63804;53.120;8.764;2023-01-28T04:37:45;103049.50;;;3.71;38.80
54920;BME280;63804;53.120;8.764;2023-01-28T04:40:11;103050.00;;;3.57;39.12
54920;BME280;63804;53.120;8.764;2023-01-28T04:42:38;103047.78;;;3.42;39.40
54920;BME280;63804;53.120;8.764;2023-01-28T04:45:04;103051.78;;;3.51;39.76
54920;BME280;63804;53.120;8.764;2023-01-28T04:47:30;103059.94;;;3.80;39.05
54920;BME280;63804;53.120;8.764;2023-01-28T04:49:56;103063.94;;;3.77;38.98
54920;BME280;63804;53.120;8.764;2023-01-28T04:52:22;103059.38;;;4.06;38.31
54920;BME280;63804;53.120;8.764;2023-01-28T04:54:47;103053.06;;;4.01;38.43
54920;BME280;63804;53.120;8.764;2023-01-28T04:57:13;103046.94;;;4.05;38.07
54920;BME280;63804;53.120;8.764;2023-01-28T04:59:41;103050.34;;;4.01;38.07
54920;BME280;63804;53.120;8.764;2023-01-28T05:02:06;103046.25;;;3.98;37.95
54920;BME280;63804;53.120;8.764;2023-01-28T05:04:32;103042.50;;;3.59;38.46
54920;BME280;63804;53.120;8.764;2023-01-28T05:06:58;103033.81;;;3.57;38.83
54920;BME280;63804;53.120;8.764;2023-01-28T05:09:24;103038.06;;;3.41;39.08
54920;BME280;63804;53.120;8.764;2023-01-28T05:11:50;103032.06;;;3.39;39.20
54920;BME280;63804;53.120;8.764;2023-01-28T05:14:15;103023.16;;;3.26;39.52
54920;BME280;63804;53.120;8.764;2023-01-28T05:16:41;103016.38;;;3.24;39.84
54920;BME280;63804;53.120;8.764;2023-01-28T05:19:07;103033.97;;;3.14;39.94
54920;BME280;63804;53.120;8.764;2023-01-28T05:21:33;103038.78;;;3.24;39.78
54920;BME280;63804;53.120;8.764;2023-01-28T05:23:59;103027.28;;;3.17;39.84
54920;BME280;63804;53.120;8.764;2023-01-28T05:26:25;103033.06;;;2.97;40.09
54920;BME280;63804;53.120;8.764;2023-01-28T05:28:51;103022.72;;;3.06;40.32
54920;BME280;63804;53.120;8.764;2023-01-28T05:31:16;103031.13;;;3.33;39.89
54920;BME280;63804;53.120;8.764;2023-01-28T05:33:43;103026.53;;;3.57;39.08
54920;BME280;63804;53.120;8.764;2023-01-28T05:36:09;103018.81;;;3.49;39.18
54920;BME280;63804;53.120;8.764;2023-01-28T05:38:35;103020.91;;;3.47;39.31
54920;BME280;63804;53.120;8.764;2023-01-28T05:41:00;103023.38;;;3.48;39.08
54920;BME280;63804;53.120;8.764;2023-01-28T05:43:26;103029.63;;;3.49;39.03
54920;BME280;63804;53.120;8.764;2023-01-28T05:45:53;103029.25;;;3.57;38.96
54920;BME280;63804;53.120;8.764;2023-01-28T05:48:19;103023.34;;;3.60;38.79
54920;BME280;63804;53.120;8.764;2023-01-28T05:50:47;103022.53;;;3.60;38.90
54920;BME280;63804;53.120;8.764;2023-01-28T05:53:13;103024.69;;;3.46;39.37
54920;BME280;63804;53.120;8.764;2023-01-28T05:55:39;103028.41;;;3.57;38.99
54920;BME280;63804;53.120;8.764;2023-01-28T05:58:05;103030.44;;;3.49;39.37
54920;BME280;63804;53.120;8.764;2023-01-28T06:00:31;103031.44;;;3.60;39.05
54920;BME280;63804;53.120;8.764;2023-01-28T06:02:56;103031.22;;;3.62;39.01
54920;BME280;63804;53.120;8.764;2023-01-28T06:05:22;103028.88;;;3.42;39.59
54920;BME280;63804;53.120;8.764;2023-01-28T06:07:49;103030.09;;;3.34;39.69
54920;BME280;63804;53.120;8.764;2023-01-28T06:10:15;103021.63;;;3.42;39.59
54920;BME280;63804;53.120;8.764;2023-01-28T06:12:44;103018.22;;;3.35;39.75
54920;BME280;63804;53.120;8.764;2023-01-28T06:15:10;103022.44;;;3.31;39.65
54920;BME280;63804;53.120;8.764;2023-01-28T06:17:36;103021.97;;;3.34;39.53
54920;BME280;63804;53.120;8.764;2023-01-28T06:20:03;103024.91;;;3.32;39.69
54920;BME280;63804;53.120;8.764;2023-01-28T06:22:29;103009.19;;;3.29;39.75
54920;BME280;63804;53.120;8.764;2023-01-28T06:24:54;103000.50;;;3.39;39.64
54920;BME280;63804;53.120;8.764;2023-01-28T06:27:20;103004.16;;;3.21;39.71
54920;BME280;63804;53.120;8.764;2023-01-28T06:29:46;103015.88;;;3.27;39.56
54920;BME280;63804;53.120;8.764;2023-01-28T06:32:12;103012.94;;;3.16;39.77
54920;BME280;63804;53.120;8.764;2023-01-28T06:34:38;103011.81;;;3.01;40.09
54920;BME280;63804;53.120;8.764;2023-01-28T06:37:03;103009.34;;;2.99;40.04
54920;BME280;63804;53.120;8.764;2023-01-28T06:39:36;103025.41;;;2.82;40.54
54920;BME280;63804;53.120;8.764;2023-01-28T06:42:01;103023.75;;;2.81;40.45
54920;BME280;63804;53.120;8.764;2023-01-28T06:44:27;103012.84;;;2.88;40.27
54920;BME280;63804;53.120;8.764;2023-01-28T06:46:53;103012.97;;;2.81;40.46
54920;BME280;63804;53.120;8.764;2023-01-28T06:49:19;103003.94;;;2.75;40.62
54920;BME280;63804;53.120;8.764;2023-01-28T06:51:46;103003.59;;;2.72;40.38
54920;BME280;63804;53.120;8.764;2023-01-28T06:54:12;103011.06;;;2.46;41.16
54920;BME280;63804;53.120;8.764;2023-01-28T06:56:38;103016.91;;;2.43;41.36
54920;BME280;63804;53.120;8.764;2023-01-28T06:59:04;103033.13;;;2.67;40.78
54920;BME280;63804;53.120;8.764;2023-01-28T07:01:30;103038.06;;;2.82;40.64
54920;BME280;63804;53.120;8.764;2023-01-28T07:03:56;103032.19;;;2.73;40.78
54920;BME280;63804;53.120;8.764;2023-01-28T07:06:22;103033.75;;;2.81;40.57
54920;BME280;63804;53.120;8.764;2023-01-28T07:08:48;103034.19;;;2.66;40.77
54920;BME280;63804;53.120;8.764;2023-01-28T07:11:14;103043.31;;;2.65;41.08
54920;BME280;63804;53.120;8.764;2023-01-28T07:13:40;103044.72;;;2.55;41.17
54920;BME280;63804;53.120;8.764;2023-01-28T07:16:06;103048.72;;;2.65;40.95
54920;BME280;63804;53.120;8.764;2023-01-28T07:18:32;103056.00;;;2.76;40.62
54920;BME280;63804;53.120;8.764;2023-01-28T07:20:58;103055.75;;;2.66;40.77
54920;BME280;63804;53.120;8.764;2023-01-28T07:23:24;103057.66;;;2.35;41.29
54920;BME280;63804;53.120;8.764;2023-01-28T07:25:49;103065.88;;;2.40;41.35
54920;BME280;63804;53.120;8.764;2023-01-28T07:28:15;103072.03;;;2.47;41.27
54920;BME280;63804;53.120;8.764;2023-01-28T07:30:47;103082.22;;;2.45;41.16
54920;BME280;63804;53.120;8.764;2023-01-28T07:33:13;103087.00;;;2.43;41.26
54920;BME280;63804;53.120;8.764;2023-01-28T07:35:39;103093.03;;;2.57;41.15
54920;BME280;63804;53.120;8.764;2023-01-28T07:38:05;103091.25;;;2.51;41.24
54920;BME280;63804;53.120;8.764;2023-01-28T07:40:31;103096.88;;;2.49;41.10
54920;BME280;63804;53.120;8.764;2023-01-28T07:43:04;103102.53;;;2.59;40.96
54920;BME280;63804;53.120;8.764;2023-01-28T07:45:31;103099.25;;;2.57;41.40
54920;BME280;63804;53.120;8.764;2023-01-28T07:48:02;103094.03;;;2.44;41.56
54920;BME280;63804;53.120;8.764;2023-01-28T07:50:30;103091.94;;;2.46;41.61
54920;BME280;63804;53.120;8.764;2023-01-28T07:52:57;103095.97;;;2.55;41.27
54920;BME280;63804;53.120;8.764;2023-01-28T07:55:24;103099.84;;;2.71;41.06
54920;BME280;63804;53.120;8.764;2023-01-28T07:57:54;103107.97;;;2.95;40.80
54920;BME280;63804;53.120;8.764;2023-01-28T08:00:22;103108.56;;;2.85;40.95
54920;BME280;63804;53.120;8.764;2023-01-28T08:02:49;103105.66;;;2.98;40.58
54920;BME280;63804;53.120;8.764;2023-01-28T08:05:19;103094.16;;;3.03;40.98
54920;BME280;63804;53.120;8.764;2023-01-28T08:07:46;103095.91;;;3.09;40.48
54920;BME280;63804;53.120;8.764;2023-01-28T08:10:16;103100.28;;;3.22;40.30
54920;BME280;63804;53.120;8.764;2023-01-28T08:12:56;103100.63;;;3.38;39.85
54920;BME280;63804;53.120;8.764;2023-01-28T08:15:27;103106.84;;;3.26;39.95
54920;BME280;63804;53.120;8.764;2023-01-28T08:17:54;103101.19;;;3.28;39.92
54920;BME280;63804;53.120;8.764;2023-01-28T08:20:21;103108.47;;;3.27;39.75
54920;BME280;63804;53.120;8.764;2023-01-28T08:22:47;103099.78;;;3.13;39.92
54920;BME280;63804;53.120;8.764;2023-01-28T08:25:13;103111.31;;;3.21;40.03
54920;BME280;63804;53.120;8.764;2023-01-28T08:27:39;103102.59;;;3.07;40.33
54920;BME280;63804;53.120;8.764;2023-01-28T08:30:05;103102.34;;;3.08;40.00
54920;BME280;63804;53.120;8.764;2023-01-28T08:32:31;103111.06;;;2.98;40.45
54920;BME280;63804;53.120;8.764;2023-01-28T08:34:58;103115.03;;;3.08;40.19
54920;BME280;63804;53.120;8.764;2023-01-28T08:37:23;103113.03;;;3.15;40.13
54920;BME280;63804;53.120;8.764;2023-01-28T08:39:49;103105.91;;;3.32;39.78
54920;BME280;63804;53.120;8.764;2023-01-28T08:42:15;103103.44;;;3.31;39.72
54920;BME280;63804;53.120;8.764;2023-01-28T08:44:41;103103.09;;;3.27;39.83
54920;BME280;63804;53.120;8.764;2023-01-28T08:47:07;103104.25;;;3.31;39.58
54920;BME280;63804;53.120;8.764;2023-01-28T08:49:33;103110.00;;;3.35;39.64
54920;BME280;63804;53.120;8.764;2023-01-28T08:51:59;103106.28;;;3.48;39.35
54920;BME280;63804;53.120;8.764;2023-01-28T08:54:24;103109.66;;;3.55;39.24
54920;BME280;63804;53.120;8.764;2023-01-28T08:56:57;103106.50;;;3.58;39.31
54920;BME280;63804;53.120;8.764;2023-01-28T08:59:23;103105.69;;;3.46;39.24
54920;BME280;63804;53.120;8.764;2023-01-28T09:01:48;103106.97;;;3.55;38.93
54920;BME280;63804;53.120;8.764;2023-01-28T09:04:14;103112.94;;;3.69;38.90
54920;BME280;63804;53.120;8.764;2023-01-28T09:06:40;103117.50;;;3.68;38.50
54920;BME280;63804;53.120;8.764;2023-01-28T09:09:06;103122.13;;;3.56;38.77
54920;BME280;63804;53.120;8.764;2023-01-28T09:11:32;103127.13;;;3.76;38.74
54920;BME280;63804;53.120;8.764;2023-01-28T09:13:57;103135.09;;;3.83;38.76
54920;BME280;63804;53.120;8.764;2023-01-28T09:16:23;103151.69;;;3.75;38.69
54920;BME280;63804;53.120;8.764;2023-01-28T09:18:50;103151.91;;;3.85;38.31
54920;BME280;63804;53.120;8.764;2023-01-28T09:21:16;103156.84;;;3.88;38.33
54920;BME280;63804;53.120;8.764;2023-01-28T09:23:42;103160.00;;;3.85;38.44
54920;BME280;63804;53.120;8.764;2023-01-28T09:26:08;103165.28;;;3.92;38.30
54920;BME280;63804;53.120;8.764;2023-01-28T09:28:34;103165.63;;;3.95;38.32
54920;BME280;63804;53.120;8.764;2023-01-28T09:31:05;103176.66;;;4.05;38.41
54920;BME280;63804;53.120;8.764;2023-01-28T09:33:32;103175.22;;;4.15;38.39
54920;BME280;63804;53.120;8.764;2023-01-28T09:35:59;103176.59;;;4.29;37.95
54920;BME280;63804;53.120;8.764;2023-01-28T09:38:25;103169.31;;;4.30;38.01
54920;BME280;63804;53.120;8.764;2023-01-28T09:40:51;103170.09;;;4.30;37.94
54920;BME280;63804;53.120;8.764;2023-01-28T09:45:51;103173.47;;;4.08;38.42
54920;BME280;63804;53.120;8.764;2023-01-28T09:48:22;103186.47;;;4.23;38.23
54920;BME280;63804;53.120;8.764;2023-01-28T09:50:52;103178.59;;;4.22;38.17
54920;BME280;63804;53.120;8.764;2023-01-28T09:53:25;103184.38;;;4.25;38.14
54920;BME280;63804;53.120;8.764;2023-01-28T09:56:03;103179.78;;;4.26;38.00
54920;BME280;63804;53.120;8.764;2023-01-28T09:58:30;103174.66;;;4.13;38.24
54920;BME280;63804;53.120;8.764;2023-01-28T10:01:14;103180.63;;;4.15;38.12
54920;BME280;63804;53.120;8.764;2023-01-28T10:09:20;103167.72;;;4.45;38.15
54920;BME280;63804;53.120;8.764;2023-01-28T10:12:29;103163.19;;;4.34;38.07
54920;BME280;63804;53.120;8.764;2023-01-28T10:18:10;103150.06;;;4.72;37.85
54920;BME280;63804;53.120;8.764;2023-01-28T10:20:45;103141.38;;;4.70;38.05
54920;BME280;63804;53.120;8.764;2023-01-28T10:23:40;103139.78;;;4.57;37.94
54920;BME280;63804;53.120;8.764;2023-01-28T10:26:16;103135.31;;;4.62;38.31
54920;BME280;63804;53.120;8.764;2023-01-28T10:28:51;103145.28;;;4.62;38.02
54920;BME280;63804;53.120;8.764;2023-01-28T10:31:19;103129.06;;;4.62;37.98
54920;BME280;63804;53.120;8.764;2023-01-28T10:33:46;103125.63;;;4.67;38.19
54920;BME280;63804;53.120;8.764;2023-01-28T10:36:13;103128.66;;;4.70;38.03
54920;BME280;63804;53.120;8.764;2023-01-28T10:38:39;103122.53;;;4.75;38.13
54920;BME280;63804;53.120;8.764;2023-01-28T10:41:05;103128.00;;;4.80;38.03
54920;BME280;63804;53.120;8.764;2023-01-28T10:43:33;103124.34;;;4.86;37.88
54920;BME280;63804;53.120;8.764;2023-01-28T10:46:20;103105.16;;;4.88;37.83
54920;BME280;63804;53.120;8.764;2023-01-28T10:51:34;103096.88;;;4.94;37.70
54920;BME280;63804;53.120;8.764;2023-01-28T10:54:00;103091.06;;;4.86;37.85
54920;BME280;63804;53.120;8.764;2023-01-28T10:56:29;103089.41;;;4.85;38.01
54920;BME280;63804;53.120;8.764;2023-01-28T10:59:03;103075.47;;;4.76;38.26
54920;BME280;63804;53.120;8.764;2023-01-28T11:01:49;103086.53;;;4.74;38.12
54920;BME280;63804;53.120;8.764;2023-01-28T11:04:35;103086.78;;;4.73;38.14
54920;BME280;63804;53.120;8.764;2023-01-28T11:07:20;103077.34;;;4.58;38.44
54920;BME280;63804;53.120;8.764;2023-01-28T11:09:48;103072.66;;;4.54;38.47
54920;BME280;63804;53.120;8.764;2023-01-28T11:12:28;103078.16;;;4.59;38.29
54920;BME280;63804;53.120;8.764;2023-01-28T11:15:03;103073.50;;;4.54;38.50
54920;BME280;63804;53.120;8.764;2023-01-28T11:17:34;103057.66;;;4.63;38.49
54920;BME280;63804;53.120;8.764;2023-01-28T11:20:12;103043.31;;;4.62;38.55
54920;BME280;63804;53.120;8.764;2023-01-28T11:22:43;103030.13;;;4.66;38.66
54920;BME280;63804;53.120;8.764;2023-01-28T11:25:19;103037.44;;;4.66;38.61
54920;BME280;63804;53.120;8.764;2023-01-28T11:27:49;103015.09;;;4.75;38.46
54920;BME280;63804;53.120;8.764;2023-01-28T11:30:28;102999.81;;;4.64;38.59
54920;BME280;63804;53.120;8.764;2023-01-28T11:33:23;103002.81;;;4.85;38.27
54920;BME280;63804;53.120;8.764;2023-01-28T11:35:56;102985.22;;;5.04;37.90
54920;BME280;63804;53.120;8.764;2023-01-28T11:38:23;102991.69;;;5.03;38.20
54920;BME280;63804;53.120;8.764;2023-01-28T11:40:55;103007.94;;;5.03;38.42
54920;BME280;63804;53.120;8.764;2023-01-28T11:43:24;103010.09;;;5.23;37.98
54920;BME280;63804;53.120;8.764;2023-01-28T11:48:37;103026.84;;;5.37;37.86
54920;BME280;63804;53.120;8.764;2023-01-28T12:01:36;103036.72;;;5.70;37.15
54920;BME280;63804;53.120;8.764;2023-01-28T12:07:09;103031.06;;;5.72;37.56
54920;BME280;63804;53.120;8.764;2023-01-28T12:18:19;103023.66;;;5.89;37.54
54920;BME280;63804;53.120;8.764;2023-01-28T12:21:10;103015.16;;;5.81;37.52
54920;BME280;63804;53.120;8.764;2023-01-28T12:34:51;103007.63;;;5.38;38.50
54920;BME280;63804;53.120;8.764;2023-01-28T12:43:02;103006.94;;;5.48;38.48
54920;BME280;63804;53.120;8.764;2023-01-28T12:45:42;103004.41;;;5.64;38.24
54920;BME280;63804;53.120;8.764;2023-01-28T12:48:14;102991.16;;;5.89;37.91
54920;BME280;63804;53.120;8.764;2023-01-28T12:50:48;102971.59;;;5.87;37.95
54920;BME280;63804;53.120;8.764;2023-01-28T12:53:23;102939.94;;;5.93;38.14
54920;BME280;63804;53.120;8.764;2023-01-28T12:55:56;102943.59;;;6.09;37.98
54920;BME280;63804;53.120;8.764;2023-01-28T12:58:35;102943.84;;;6.07;38.12
54920;BME280;63804;53.120;8.764;2023-01-28T13:01:06;102943.03;;;6.07;37.95
54920;BME280;63804;53.120;8.764;2023-01-28T13:03:47;102941.31;;;5.96;38.13
54920;BME280;63804;53.120;8.764;2023-01-28T13:06:18;102945.53;;;5.81;38.51
54920;BME280;63804;53.120;8.764;2023-01-28T13:08:47;102951.03;;;5.91;38.45
54920;BME280;63804;53.120;8.764;2023-01-28T13:11:16;102942.09;;;5.91;38.23
54920;BME280;63804;53.120;8.764;2023-01-28T13:13:44;102938.69;;;6.06;38.12
54920;BME280;63804;53.120;8.764;2023-01-28T13:16:11;102950.63;;;6.05;38.12
54920;BME280;63804;53.120;8.764;2023-01-28T13:24:34;102957.78;;;5.89;38.26
54920;BME280;63804;53.120;8.764;2023-01-28T13:26:44;102954.63;;;5.70;38.52
54920;BME280;63804;53.120;8.764;2023-01-28T13:31:41;102952.78;;;5.75;38.62
54920;BME280;63804;53.120;8.764;2023-01-28T13:36:55;102950.78;;;5.66;38.92
54920;BME280;63804;53.120;8.764;2023-01-28T13:39:23;102962.84;;;5.80;38.72
54920;BME280;63804;53.120;8.764;2023-01-28T13:42:18;102961.31;;;5.89;38.61
54920;BME280;63804;53.120;8.764;2023-01-28T13:44:45;102955.84;;;5.84;38.68
54920;BME280;63804;53.120;8.764;2023-01-28T13:47:17;102956.91;;;5.83;38.62
54920;BME280;63804;53.120;8.764;2023-01-28T13:49:57;102964.94;;;5.73;38.83
54920;BME280;63804;53.120;8.764;2023-01-28T13:52:28;102971.59;;;5.87;38.74
54920;BME280;63804;53.120;8.764;2023-01-28T13:55:00;102955.53;;;5.81;38.84
54920;BME280;63804;53.120;8.764;2023-01-28T14:00:20;102950.44;;;5.84;38.74
54920;BME280;63804;53.120;8.764;2023-01-28T14:11:39;102960.75;;;5.87;38.89
54920;BME280;63804;53.120;8.764;2023-01-28T14:16:51;102960.66;;;6.04;38.67
54920;BME280;63804;53.120;8.764;2023-01-28T14:19:38;102962.03;;;6.07;38.63
54920;BME280;63804;53.120;8.764;2023-01-28T14:22:08;102960.06;;;6.02;38.78
54920;BME280;63804;53.120;8.764;2023-01-28T14:24:38;102974.47;;;6.03;38.89
54920;BME280;63804;53.120;8.764;2023-01-28T14:27:31;102971.16;;;6.01;39.00
54920;BME280;63804;53.120;8.764;2023-01-28T14:30:19;102972.53;;;5.98;39.06
54920;BME280;63804;53.120;8.764;2023-01-28T14:32:57;102973.53;;;5.92;39.18
54920;BME280;63804;53.120;8.764;2023-01-28T14:35:32;102973.53;;;5.92;39.23
54920;BME280;63804;53.120;8.764;2023-01-28T14:37:59;102973.78;;;5.90;39.04
54920;BME280;63804;53.120;8.764;2023-01-28T14:40:31;102971.97;;;5.96;38.97
54920;BME280;63804;53.120;8.764;2023-01-28T14:43:00;102971.44;;;5.99;39.08
54920;BME280;63804;53.120;8.764;2023-01-28T14:54:13;102972.31;;;6.05;39.28
54920;BME280;63804;53.120;8.764;2023-01-28T14:59:16;102990.59;;;5.92;39.38
54920;BME280;63804;53.120;8.764;2023-01-28T15:01:47;102984.38;;;5.92;39.46
54920;BME280;63804;53.120;8.764;2023-01-28T15:04:31;102986.38;;;6.02;39.28
54920;BME280;63804;53.120;8.764;2023-01-28T15:07:24;102991.94;;;5.90;39.58
54920;BME280;63804;53.120;8.764;2023-01-28T15:10:10;102999.13;;;6.01;39.66
54920;BME280;63804;53.120;8.764;2023-01-28T15:12:40;102995.56;;;6.01;39.42
54920;BME280;63804;53.120;8.764;2023-01-28T15:15:27;102991.00;;;6.01;39.45
54920;BME280;63804;53.120;8.764;2023-01-28T15:17:59;102995.09;;;6.09;39.57